Time;durP1;ratioP1;P1;durP2;ratioP2;P2;SDS_P1;SDS_P2;PMS_P1;PMS_P2;Temp;Humidity;BMP_temperature;BMP_pressure;BME280_temperature;BME280_humidity;BME280_pressure;Samples;Min_cycle;Max_cycle;Signal;HPM_P1;HPM_P2
2023/06/30 00:00:11;;;;;;;5.53;4.07;;;;;;;15.50;71.00;94038.84;5025327;28;20056;-85
2023/06/30 00:02:37;;;;;;;7.95;4.22;;;;;;;15.51;71.40;94043.88;5025181;28;20397;-85
2023/06/30 00:05:04;;;;;;;6.30;4.70;;;;;;;15.53;72.01;94056.94;5025377;28;20022;-85
2023/06/30 00:07:30;;;;;;;6.22;4.38;;;;;;;15.49;72.23;94058.75;5025107;28;20028;-85
2023/06/30 00:09:55;;;;;;;7.63;4.63;;;;;;;15.37;72.33;94048.84;5024916;28;20045;-85
2023/06/30 00:12:20;;;;;;;6.55;5.15;;;;;;;15.35;72.93;94048.38;5024930;28;20057;-85
2023/06/30 00:14:46;;;;;;;11.13;5.00;;;;;;;15.36;73.29;94041.88;5023556;28;20026;-85
2023/06/30 00:17:11;;;;;;;8.95;4.60;;;;;;;15.34;73.36;94047.59;5025073;28;20339;-85
2023/06/30 00:19:37;;;;;;;5.55;4.50;;;;;;;15.33;73.60;94050.63;5024802;28;20034;-85
2023/06/30 00:22:03;;;;;;;7.95;4.43;;;;;;;15.27;73.67;94049.31;5024917;28;20025;-85
2023/06/30 00:24:29;;;;;;;7.15;5.30;;;;;;;15.21;73.98;94048.75;5024651;28;20363;-85
2023/06/30 00:26:54;;;;;;;9.30;6.03;;;;;;;15.20;74.35;94049.84;5024835;28;20049;-85
2023/06/30 00:29:20;;;;;;;9.98;4.35;;;;;;;15.16;74.63;94052.44;5024305;28;20052;-85
2023/06/30 00:31:45;;;;;;;8.02;4.90;;;;;;;15.19;74.75;94050.97;5040262;28;20342;-85
2023/06/30 00:34:11;;;;;;;13.00;6.78;;;;;;;15.12;74.73;94048.06;5024433;28;20049;-85
2023/06/30 00:36:36;;;;;;;8.70;5.55;;;;;;;15.12;75.13;94051.53;5023795;28;20018;-85
2023/06/30 00:39:02;;;;;;;6.70;5.38;;;;;;;15.08;75.45;94050.63;5024776;28;20034;-85
2023/06/30 00:41:28;;;;;;;9.35;5.43;;;;;;;15.07;75.30;94050.97;5024456;28;20020;-85
2023/06/30 00:43:53;;;;;;;9.55;5.50;;;;;;;14.96;75.73;94043.38;5024641;28;20014;-85
2023/06/30 00:46:19;;;;;;;7.72;5.80;;;;;;;14.97;75.86;94050.31;5024530;28;20021;-85
2023/06/30 00:48:45;;;;;;;8.65;5.32;;;;;;;14.99;75.86;94048.06;5024426;28;20053;-85
2023/06/30 00:51:12;;;;;;;9.55;5.35;;;;;;;14.90;76.24;94055.47;5024512;28;20029;-85
2023/06/30 00:53:37;;;;;;;9.55;6.40;;;;;;;14.84;76.23;94048.75;5024521;28;20037;-85
2023/06/30 00:56:03;;;;;;;8.20;5.25;;;;;;;14.84;76.53;94052.22;5024154;28;20025;-85
2023/06/30 00:58:29;;;;;;;12.20;6.60;;;;;;;14.83;76.72;94044.47;5024266;28;20227;-85
2023/06/30 01:01:01;;;;;;;13.18;6.20;;;;;;;14.84;76.71;94048.75;5023158;28;20028;-85
2023/06/30 01:03:42;;;;;;;10.88;5.20;;;;;;;14.78;77.00;94052.78;5024283;28;20025;-85
2023/06/30 01:06:22;;;;;;;9.43;5.55;;;;;;;14.79;76.65;94043.59;5023797;28;20076;-85
2023/06/30 01:09:10;;;;;;;7.25;5.40;;;;;;;14.72;76.69;94043.38;5023990;28;20083;-85
2023/06/30 01:11:36;;;;;;;8.07;5.63;;;;;;;14.61;76.61;94045.69;5024294;28;20052;-85
2023/06/30 01:14:04;;;;;;;8.63;5.70;;;;;;;14.55;77.00;94049.69;5024064;28;20026;-85
2023/06/30 01:16:31;;;;;;;7.40;5.75;;;;;;;14.57;77.25;94044.78;5023726;28;20022;-85
2023/06/30 01:18:58;;;;;;;12.70;5.68;;;;;;;14.57;77.44;94050.97;5023799;28;20021;-85
2023/06/30 01:21:25;;;;;;;15.35;6.03;;;;;;;14.57;77.25;94042.91;5024059;28;20033;-85
2023/06/30 01:24:03;;;;;;;14.48;5.82;;;;;;;14.55;77.31;94039.75;5024008;28;20342;-85
2023/06/30 01:26:34;;;;;;;7.15;4.82;;;;;;;14.52;77.53;94043.09;5023860;28;20036;-84
2023/06/30 01:29:03;;;;;;;8.60;5.68;;;;;;;14.46;77.50;94033.69;5023896;28;20041;-85
2023/06/30 01:31:31;;;;;;;10.45;5.35;;;;;;;14.39;77.66;94031.56;5022823;28;20259;-85
2023/06/30 01:33:59;;;;;;;14.27;5.53;;;;;;;14.41;77.77;94028.53;5023629;28;20109;-85
2023/06/30 01:36:25;;;;;;;7.45;5.50;;;;;;;14.37;77.62;94033.00;5023904;28;20100;-85
2023/06/30 01:38:50;;;;;;;11.52;5.82;;;;;;;14.31;78.09;94029.75;5023786;28;20026;-85
2023/06/30 01:41:16;;;;;;;7.80;5.47;;;;;;;14.26;78.19;94024.59;5026845;28;20122;-84
2023/06/30 01:43:43;;;;;;;10.57;6.50;;;;;;;14.27;78.19;94017.34;5027899;28;20025;-85
2023/06/30 01:46:08;;;;;;;10.77;6.28;;;;;;;14.25;78.04;94023.81;5027813;28;20026;-85
2023/06/30 01:48:34;;;;;;;12.13;6.40;;;;;;;14.21;77.66;94020.25;5027957;28;20248;-85
2023/06/30 01:51:00;;;;;;;9.18;6.28;;;;;;;14.20;77.74;94018.66;5027699;28;20029;-84
2023/06/30 01:53:26;;;;;;;14.57;6.63;;;;;;;14.18;78.03;94020.88;5027694;28;20025;-85
2023/06/30 01:55:54;;;;;;;13.07;6.57;;;;;;;14.18;78.65;94023.56;5027453;28;20050;-84
2023/06/30 01:58:20;;;;;;;10.35;5.60;;;;;;;14.20;78.79;94018.66;5027699;28;20089;-83
2023/06/30 02:00:46;;;;;;;9.95;6.05;;;;;;;14.19;78.93;94016.34;5027877;28;20080;-84
2023/06/30 02:03:11;;;;;;;7.07;5.57;;;;;;;14.16;78.80;94015.06;5027381;28;20205;-84
2023/06/30 02:05:37;;;;;;;8.70;6.10;;;;;;;14.11;79.01;94015.31;5027534;28;20064;-84
2023/06/30 02:08:02;;;;;;;11.18;5.95;;;;;;;14.10;79.03;94021.75;5027429;28;20144;-85
2023/06/30 02:10:29;;;;;;;10.75;6.07;;;;;;;14.04;79.07;94029.25;5027115;28;20270;-84
2023/06/30 02:12:55;;;;;;;8.27;5.78;;;;;;;14.09;78.94;94028.25;5027000;28;20064;-84
2023/06/30 02:15:20;;;;;;;9.40;5.47;;;;;;;14.07;78.56;94019.75;5027311;28;20091;-84
2023/06/30 02:17:46;;;;;;;6.18;5.25;;;;;;;14.02;78.94;94038.72;5027269;28;20328;-82
2023/06/30 02:20:13;;;;;;;10.73;5.68;;;;;;;13.98;78.92;94029.75;5027543;28;20076;-84
2023/06/30 02:22:38;;;;;;;7.78;5.90;;;;;;;14.02;79.26;94033.34;5027069;28;20029;-84
2023/06/30 02:25:04;;;;;;;7.90;5.15;;;;;;;14.04;79.60;94017.72;5027032;28;20240;-84
2023/06/30 02:27:30;;;;;;;10.85;6.30;;;;;;;14.01;79.30;94024.53;5027034;28;20021;-84
2023/06/30 02:29:56;;;;;;;12.02;6.18;;;;;;;13.97;79.35;94026.31;5027039;28;20048;-84
2023/06/30 02:32:22;;;;;;;9.15;6.25;;;;;;;13.92;79.48;94028.41;5026971;28;20067;-84
2023/06/30 02:34:48;;;;;;;8.02;5.85;;;;;;;13.87;79.68;94032.06;5026643;28;20856;-84
2023/06/30 02:37:13;;;;;;;12.35;6.30;;;;;;;13.91;79.70;94024.16;5026971;28;20040;-85
2023/06/30 02:39:39;;;;;;;8.68;5.93;;;;;;;13.88;79.72;94020.25;5026777;28;20057;-85
2023/06/30 02:42:04;;;;;;;9.02;5.38;;;;;;;13.80;79.60;94026.47;5026823;28;20028;-85
2023/06/30 02:44:30;;;;;;;10.02;7.05;;;;;;;13.72;79.96;94030.78;5042069;28;20045;-84
2023/06/30 02:46:56;;;;;;;22.35;9.07;;;;;;;13.77;79.82;94032.47;5042284;28;20026;-85
2023/06/30 02:49:23;;;;;;;11.40;5.72;;;;;;;13.75;80.11;94018.63;5026833;28;20045;-85
2023/06/30 02:51:48;;;;;;;9.98;6.18;;;;;;;13.73;80.37;94027.00;5026176;28;20034;-85
2023/06/30 02:54:14;;;;;;;12.18;6.10;;;;;;;13.73;80.42;94023.53;5026845;28;20441;-85
2023/06/30 02:56:39;;;;;;;10.02;5.57;;;;;;;13.70;80.30;94016.94;5026039;28;20021;-85
2023/06/30 02:59:04;;;;;;;9.10;6.00;;;;;;;13.67;80.32;94014.13;5025279;28;20243;-85
2023/06/30 03:01:30;;;;;;;8.05;6.05;;;;;;;13.65;80.20;94019.81;5026656;28;20025;-84
2023/06/30 03:03:55;;;;;;;15.60;6.40;;;;;;;13.62;80.13;94020.47;5041933;28;20032;-85
2023/06/30 03:06:21;;;;;;;13.68;6.03;;;;;;;13.67;80.25;94022.16;5026621;28;20312;-84
2023/06/30 03:08:46;;;;;;;9.95;6.28;;;;;;;13.69;79.77;94025.31;5026745;28;20097;-85
2023/06/30 03:11:13;;;;;;;18.92;5.22;;;;;;;13.68;79.97;94013.81;5026528;28;20045;-85
2023/06/30 03:13:38;;;;;;;7.03;4.85;;;;;;;13.67;79.44;94014.13;5026345;28;20076;-85
2023/06/30 03:16:04;;;;;;;6.63;5.00;;;;;;;13.69;78.97;94009.22;5026571;28;20029;-85
2023/06/30 03:18:30;;;;;;;9.18;4.97;;;;;;;13.70;78.85;94005.44;5026267;28;20036;-84
2023/06/30 03:20:55;;;;;;;7.15;5.20;;;;;;;13.68;78.63;94004.97;5041515;28;20026;-85
2023/06/30 03:23:21;;;;;;;10.00;4.78;;;;;;;13.70;79.33;94006.22;5026044;28;20312;-85
2023/06/30 03:25:47;;;;;;;7.32;4.82;;;;;;;13.67;78.75;94009.56;5026250;28;20029;-84
2023/06/30 03:28:12;;;;;;;7.15;5.00;;;;;;;13.69;78.25;94007.31;5026328;28;20028;-85
2023/06/30 03:30:38;;;;;;;9.10;5.25;;;;;;;13.69;78.57;94010.00;5041420;28;20022;-85
2023/06/30 03:33:03;;;;;;;5.88;4.63;;;;;;;13.70;77.69;94011.59;5025692;28;20033;-84
2023/06/30 03:35:29;;;;;;;5.63;4.38;;;;;;;13.75;77.35;94011.38;5024555;28;20022;-85
2023/06/30 03:37:54;;;;;;;6.30;4.70;;;;;;;13.78;77.74;94017.97;5025920;28;20045;-85
2023/06/30 03:40:20;;;;;;;10.05;4.47;;;;;;;13.78;77.97;94009.94;5025291;28;20213;-85
2023/06/30 03:42:45;;;;;;;10.65;5.65;;;;;;;13.84;78.23;94017.44;5025313;28;20088;-84
2023/06/30 03:45:11;;;;;;;11.43;5.65;;;;;;;13.93;78.41;94019.25;5025873;28;20029;-85
2023/06/30 03:47:37;;;;;;;9.13;6.40;;;;;;;13.97;78.51;94014.81;5025621;28;20454;-85
2023/06/30 03:50:03;;;;;;;9.50;6.00;;;;;;;14.04;78.66;94012.34;5025485;28;20053;-85
2023/06/30 03:52:31;;;;;;;7.60;6.32;;;;;;;14.08;79.07;94025.88;5025587;28;20030;-85
2023/06/30 03:54:57;;;;;;;10.80;6.88;;;;;;;14.18;79.03;94018.22;5025071;28;20079;-85
2023/06/30 03:57:22;;;;;;;10.43;6.60;;;;;;;14.18;79.09;94009.38;5025289;28;20089;-84
2023/06/30 03:59:48;;;;;;;16.90;7.55;;;;;;;14.19;79.58;94021.69;5025412;28;20024;-85
2023/06/30 04:02:13;;;;;;;12.75;6.97;;;;;;;14.28;79.32;94018.91;5025523;28;20061;-84
2023/06/30 04:04:39;;;;;;;10.10;6.88;;;;;;;14.31;79.46;94024.41;5023919;28;20026;-85
2023/06/30 04:07:04;;;;;;;16.60;8.93;;;;;;;14.35;79.38;94021.81;5025142;28;20040;-84
2023/06/30 04:09:30;;;;;;;12.27;7.15;;;;;;;14.31;79.50;94013.69;5024057;28;20093;-84
2023/06/30 04:11:55;;;;;;;14.07;7.65;;;;;;;14.32;79.17;94025.19;5024992;28;20248;-84
2023/06/30 04:14:21;;;;;;;22.92;8.98;;;;;;;14.34;79.42;94028.31;5025132;28;20033;-84
2023/06/30 04:16:47;;;;;;;10.77;7.88;;;;;;;14.39;79.38;94033.44;5025080;28;20084;-84
2023/06/30 04:19:12;;;;;;;18.92;8.82;;;;;;;14.43;79.46;94023.63;5025085;28;20022;-84
2023/06/30 04:21:38;;;;;;;11.20;8.20;;;;;;;14.36;79.52;94028.75;5024871;28;20048;-85
2023/06/30 04:24:03;;;;;;;12.00;8.80;;;;;;;14.45;79.30;94029.47;5024874;28;20013;-84
2023/06/30 04:26:30;;;;;;;13.15;8.23;;;;;;;14.50;79.21;94025.78;5024326;28;20193;-84
2023/06/30 04:28:56;;;;;;;14.10;9.27;;;;;;;14.53;78.93;94027.78;5040047;28;20045;-84
2023/06/30 04:31:21;;;;;;;13.88;8.50;;;;;;;14.53;79.02;94030.44;5025190;28;20037;-85
2023/06/30 04:33:47;;;;;;;12.20;8.60;;;;;;;14.58;78.90;94027.59;5024815;28;20335;-85
2023/06/30 04:36:13;;;;;;;16.48;9.68;;;;;;;14.64;79.08;94021.66;5024688;28;20022;-85
2023/06/30 04:38:39;;;;;;;11.85;8.55;;;;;;;14.67;79.43;94020.22;5024527;28;20214;-85
2023/06/30 04:41:05;;;;;;;13.43;8.30;;;;;;;14.80;78.57;94024.47;5024455;28;20079;-85
2023/06/30 04:43:30;;;;;;;16.70;8.23;;;;;;;14.86;78.32;94017.00;5024408;28;20315;-85
2023/06/30 04:45:57;;;;;;;11.05;8.32;;;;;;;14.92;77.49;94018.34;5024453;28;20025;-85
2023/06/30 04:48:22;;;;;;;12.23;7.53;;;;;;;14.94;77.14;94017.97;5024500;28;20025;-85
2023/06/30 04:50:48;;;;;;;11.35;8.27;;;;;;;14.94;77.11;94008.03;5023152;28;20339;-85
2023/06/30 04:53:14;;;;;;;12.35;8.85;;;;;;;14.91;77.44;94011.38;5024583;28;20092;-85
2023/06/30 04:55:39;;;;;;;15.73;8.65;;;;;;;14.94;77.08;94013.41;5024373;28;20026;-85
2023/06/30 04:58:04;;;;;;;13.02;7.82;;;;;;;15.06;77.32;94028.69;5024250;28;20334;-84
2023/06/30 05:00:30;;;;;;;20.15;9.65;;;;;;;15.12;78.02;94024.69;5023252;28;20040;-85
2023/06/30 05:02:56;;;;;;;14.65;9.60;;;;;;;15.17;77.65;94019.09;5024328;28;20327;-85
2023/06/30 05:05:21;;;;;;;16.05;9.77;;;;;;;15.18;77.99;94028.72;5024233;28;20207;-85
2023/06/30 05:07:47;;;;;;;16.60;9.63;;;;;;;15.29;77.45;94023.66;5024407;28;20021;-85
2023/06/30 05:10:13;;;;;;;11.00;7.43;;;;;;;15.37;75.28;94014.69;5024284;28;20017;-84
2023/06/30 05:12:38;;;;;;;17.20;7.80;;;;;;;15.45;74.40;94015.69;5024108;28;20040;-85
2023/06/30 05:15:04;;;;;;;10.50;7.57;;;;;;;15.47;74.53;94020.69;5023806;28;20018;-85
2023/06/30 05:17:30;;;;;;;14.13;10.40;;;;;;;15.51;75.51;94022.41;5024116;28;20021;-85
2023/06/30 05:19:55;;;;;;;10.30;7.35;;;;;;;15.50;74.21;94017.34;5024099;28;20327;-85
2023/06/30 05:22:21;;;;;;;12.55;7.72;;;;;;;15.45;72.66;94019.16;5024157;28;20026;-85
2023/06/30 05:24:47;;;;;;;12.55;7.85;;;;;;;15.54;73.88;94021.69;5024157;28;20374;-85
2023/06/30 05:27:14;;;;;;;12.55;7.75;;;;;;;15.58;73.75;94021.81;5024114;28;20080;-84
2023/06/30 05:29:39;;;;;;;13.68;8.00;;;;;;;15.67;73.55;94027.03;5023764;28;20033;-84
2023/06/30 05:32:05;;;;;;;13.88;7.93;;;;;;;15.78;73.55;94025.47;5023742;28;20018;-85
2023/06/30 05:34:31;;;;;;;10.10;7.35;;;;;;;15.90;74.02;94025.44;5023480;28;20053;-86
2023/06/30 05:36:57;;;;;;;14.27;7.78;;;;;;;16.05;73.84;94031.97;5023624;28;20050;-85
2023/06/30 05:39:23;;;;;;;13.48;6.85;;;;;;;16.18;73.56;94036.19;5039181;28;20108;-84
2023/06/30 05:41:48;;;;;;;9.95;7.20;;;;;;;16.30;71.96;94037.22;5023705;28;20030;-84
2023/06/30 05:44:14;;;;;;;10.75;7.30;;;;;;;16.40;72.08;94040.19;5023688;28;20049;-84
2023/06/30 05:46:39;;;;;;;10.60;7.03;;;;;;;16.41;71.39;94038.28;5023838;28;20072;-85
2023/06/30 05:49:05;;;;;;;14.40;7.30;;;;;;;16.51;71.64;94037.78;5023792;28;20026;-84
2023/06/30 05:51:35;;;;;;;8.43;6.20;;;;;;;16.46;70.42;94035.34;5023699;28;20025;-85
2023/06/30 05:54:02;;;;;;;17.17;8.02;;;;;;;16.52;70.38;94036.63;5023387;28;20097;-85
2023/06/30 05:56:28;;;;;;;17.38;7.50;;;;;;;16.55;70.59;94049.41;5022433;28;20083;-85
2023/06/30 05:58:53;;;;;;;18.27;7.90;;;;;;;16.57;70.95;94046.38;5021854;28;20018;-85
2023/06/30 06:01:20;;;;;;;15.68;8.50;;;;;;;16.61;70.96;94042.66;5022488;28;20382;-85
2023/06/30 06:03:46;;;;;;;11.93;7.85;;;;;;;16.63;70.27;94047.69;5023642;28;20037;-85
2023/06/30 06:06:12;;;;;;;10.10;7.72;;;;;;;16.65;70.59;94048.91;5023323;28;20022;-84
2023/06/30 06:08:48;;;;;;;21.55;8.13;;;;;;;16.67;70.73;94045.06;5023568;28;20049;-85
2023/06/30 06:11:14;;;;;;;15.32;8.63;;;;;;;16.77;69.81;94045.34;5023701;28;20022;-85
2023/06/30 06:13:40;;;;;;;12.25;8.05;;;;;;;16.83;68.78;94049.38;5023319;28;20021;-85
2023/06/30 06:16:07;;;;;;;11.65;7.43;;;;;;;16.91;68.82;94053.00;5023348;28;20269;-84
2023/06/30 06:18:33;;;;;;;17.70;7.47;;;;;;;16.88;68.01;94053.72;5023373;28;20041;-85
2023/06/30 06:21:01;;;;;;;9.25;7.20;;;;;;;16.97;68.51;94045.44;5023036;28;20041;-85
2023/06/30 06:23:26;;;;;;;14.13;7.80;;;;;;;17.07;69.22;94058.38;5023322;28;20072;-84
2023/06/30 06:25:52;;;;;;;14.63;8.00;;;;;;;17.23;68.59;94044.91;5023360;28;20030;-85
2023/06/30 06:28:17;;;;;;;17.27;8.18;;;;;;;17.29;67.72;94043.50;5025895;28;20025;-84
2023/06/30 06:30:44;;;;;;;17.38;8.27;;;;;;;17.42;67.91;94042.28;5027124;28;20024;-85
2023/06/30 06:33:10;;;;;;;15.50;7.15;;;;;;;17.37;67.14;94039.84;5026685;28;20025;-85
2023/06/30 06:35:36;;;;;;;20.45;7.90;;;;;;;17.42;66.64;94042.28;5026852;28;20026;-85
2023/06/30 06:38:02;;;;;;;12.20;7.32;;;;;;;17.53;66.11;94047.88;5025813;28;20026;-85
2023/06/30 06:40:32;;;;;;;12.93;8.38;;;;;;;17.57;66.87;94045.25;5026798;28;20029;-85
2023/06/30 06:42:58;;;;;;;16.85;7.93;;;;;;;17.72;67.31;94049.81;5026588;28;20036;-85
2023/06/30 06:45:23;;;;;;;21.05;8.45;;;;;;;17.77;66.43;94043.38;5042021;28;20312;-84
2023/06/30 06:48:20;;;;;;;16.55;7.93;;;;;;;17.88;67.12;94046.31;5026464;28;20088;-85
2023/06/30 06:50:49;;;;;;;13.38;7.28;;;;;;;17.90;66.94;94038.66;5027041;28;20247;-85
2023/06/30 06:53:19;;;;;;;11.38;6.93;;;;;;;18.00;66.98;94035.38;5026540;28;20036;-85
2023/06/30 06:55:46;;;;;;;11.88;6.80;;;;;;;18.09;65.90;94035.16;5026812;28;20026;-86
2023/06/30 06:58:12;;;;;;;12.18;7.32;;;;;;;18.27;64.19;94035.50;5025434;28;20017;-85
2023/06/30 07:00:37;;;;;;;11.93;8.10;;;;;;;18.35;63.41;94031.81;5025937;28;20370;-84
2023/06/30 07:03:03;;;;;;;15.65;6.63;;;;;;;18.40;62.67;94036.91;5026390;28;20127;-85
2023/06/30 07:05:29;;;;;;;10.43;6.25;;;;;;;18.39;62.18;94038.81;5026441;28;20025;-85
2023/06/30 07:07:54;;;;;;;10.68;6.50;;;;;;;18.30;61.88;94032.88;5026296;28;20028;-84
2023/06/30 07:10:20;;;;;;;16.42;5.97;;;;;;;18.29;60.72;94031.31;5026293;28;20021;-85
2023/06/30 07:12:45;;;;;;;12.57;5.65;;;;;;;18.32;60.30;94032.50;5026443;28;20189;-85
2023/06/30 07:15:11;;;;;;;11.80;5.05;;;;;;;18.42;60.49;94026.53;5026044;28;20251;-84
2023/06/30 07:17:37;;;;;;;11.68;4.82;;;;;;;18.48;59.00;94022.41;5026308;28;20033;-84
2023/06/30 07:20:02;;;;;;;11.13;5.18;;;;;;;18.58;59.42;94029.91;5026128;28;20042;-85
2023/06/30 07:22:28;;;;;;;17.75;4.78;;;;;;;18.75;59.01;94030.56;5026117;28;20026;-85
2023/06/30 07:24:53;;;;;;;10.38;4.97;;;;;;;18.90;58.77;94029.69;5025989;28;20093;-84
2023/06/30 07:27:19;;;;;;;8.95;5.93;;;;;;;19.02;61.24;94026.78;5025793;28;20029;-84
2023/06/30 07:29:47;;;;;;;20.48;6.45;;;;;;;19.10;59.74;94029.63;5024713;28;20035;-85
2023/06/30 07:32:12;;;;;;;14.80;6.63;;;;;;;19.12;59.77;94013.81;5025827;28;20136;-83
2023/06/30 07:34:38;;;;;;;10.00;5.20;;;;;;;19.20;59.72;94018.19;5025451;28;20066;-85
2023/06/30 07:37:04;;;;;;;10.38;6.28;;;;;;;19.24;59.68;94021.72;5025658;28;20032;-85
2023/06/30 07:39:29;;;;;;;11.82;5.55;;;;;;;19.34;58.86;94018.38;5026353;28;20026;-85
2023/06/30 07:41:55;;;;;;;15.45;5.70;;;;;;;19.41;58.78;94020.41;5026526;28;20316;-86
2023/06/30 07:44:20;;;;;;;9.57;5.65;;;;;;;19.59;57.35;94015.25;5025961;28;20026;-85
2023/06/30 07:46:46;;;;;;;16.05;5.82;;;;;;;19.64;57.41;94023.03;5025219;28;20068;-85
2023/06/30 07:49:11;;;;;;;9.57;4.40;;;;;;;19.79;57.87;94018.63;5025623;28;20026;-85
2023/06/30 07:51:36;;;;;;;9.00;4.40;;;;;;;19.95;57.35;94018.44;5025670;28;20100;-85
2023/06/30 07:54:02;;;;;;;7.82;2.97;;;;;;;20.13;55.44;94015.91;5040642;28;20033;-85
2023/06/30 07:56:27;;;;;;;13.10;3.90;;;;;;;20.27;54.21;94015.28;5024342;28;20029;-85
2023/06/30 07:58:53;;;;;;;6.35;4.57;;;;;;;20.40;53.19;94022.03;5025536;28;20089;-85
2023/06/30 08:01:18;;;;;;;8.75;4.00;;;;;;;20.43;52.70;94013.13;5025150;28;20037;-85
2023/06/30 08:03:44;;;;;;;9.50;3.47;;;;;;;20.49;51.48;94008.94;5025613;28;20018;-85
2023/06/30 08:06:09;;;;;;;6.22;3.28;;;;;;;20.58;51.73;94017.59;5025301;28;20041;-85
2023/06/30 08:08:35;;;;;;;4.47;2.83;;;;;;;20.72;50.53;94025.06;5025424;28;20041;-84
2023/06/30 08:11:00;;;;;;;7.95;2.95;;;;;;;20.90;49.00;94019.00;5025125;28;20141;-84
2023/06/30 08:13:26;;;;;;;7.25;3.55;;;;;;;20.90;47.95;94010.88;5024729;28;20026;-85
2023/06/30 08:15:52;;;;;;;7.90;2.80;;;;;;;20.77;47.65;94018.53;5025005;28;20025;-84
2023/06/30 08:18:17;;;;;;;5.07;2.42;;;;;;;20.76;48.74;94011.53;5024980;28;20038;-85
2023/06/30 08:20:43;;;;;;;4.30;2.50;;;;;;;20.80;48.98;93996.91;5025498;28;20026;-84
2023/06/30 08:23:12;;;;;;;6.10;2.38;;;;;;;20.94;48.72;93998.91;5024858;28;20049;-85
2023/06/30 08:25:37;;;;;;;4.85;2.63;;;;;;;21.14;47.87;93995.97;5024937;28;20313;-84
2023/06/30 08:28:03;;;;;;;5.75;2.80;;;;;;;21.26;46.91;93992.19;5024914;28;20021;-85
2023/06/30 08:30:28;;;;;;;6.88;2.53;;;;;;;21.37;47.73;93993.81;5024401;28;20256;-84
2023/06/30 08:32:54;;;;;;;4.38;2.47;;;;;;;21.48;47.73;93985.00;5024553;28;20088;-84
2023/06/30 08:35:20;;;;;;;14.43;3.38;;;;;;;21.59;46.31;93988.53;5023393;28;20041;-85
2023/06/30 08:37:45;;;;;;;7.72;2.78;;;;;;;21.61;47.03;93980.78;5024554;28;20323;-85
2023/06/30 08:40:11;;;;;;;11.93;3.85;;;;;;;21.68;47.02;93980.81;5039707;28;20065;-86
2023/06/30 08:42:40;;;;;;;7.45;3.88;;;;;;;21.73;47.73;93975.03;5024561;28;20049;-85
2023/06/30 08:45:06;;;;;;;8.82;3.88;;;;;;;;;;5024516;28;20018;-85
2023/06/30 08:47:34;;;;;;;6.75;3.70;;;;;;;21.86;47.07;93970.06;5024228;28;20032;-85
2023/06/30 08:50:01;;;;;;;9.07;4.13;;;;;;;21.91;47.95;93960.75;5023953;28;20068;-85
2023/06/30 08:52:28;;;;;;;11.32;4.53;;;;;;;21.90;47.95;93972.75;5024519;28;20028;-85
2023/06/30 08:54:54;;;;;;;6.95;3.92;;;;;;;21.79;48.45;93959.94;5024326;28;20094;-85
2023/06/30 08:57:21;;;;;;;13.07;4.07;;;;;;;21.90;48.58;93960.00;5024468;28;20033;-85
2023/06/30 08:59:46;;;;;;;11.93;4.50;;;;;;;22.03;46.80;93963.91;5024420;28;20064;-85
2023/06/30 09:02:12;;;;;;;16.52;5.32;;;;;;;22.07;47.24;93963.91;5024032;28;20025;-84
2023/06/30 09:04:40;;;;;;;8.63;4.40;;;;;;;21.98;46.10;93969.72;5024298;28;20037;-84
2023/06/30 09:07:22;;;;;;;7.40;4.45;;;;;;;21.80;46.58;93958.03;5024250;28;20041;-85
2023/06/30 09:09:49;;;;;;;12.63;4.78;;;;;;;21.80;46.69;93968.88;5024661;28;20085;-85
2023/06/30 09:12:17;;;;;;;8.35;3.85;;;;;;;21.79;46.99;93959.94;5024171;28;20045;-85
2023/06/30 09:14:44;;;;;;;6.68;3.70;;;;;;;21.71;47.61;93963.00;5023998;28;20026;-85
2023/06/30 09:17:11;;;;;;;7.95;3.78;;;;;;;21.78;47.45;93952.97;5024231;28;20030;-85
2023/06/30 09:19:38;;;;;;;6.93;3.95;;;;;;;21.81;45.94;93957.63;5024305;28;20022;-86
2023/06/30 09:22:05;;;;;;;7.85;3.58;;;;;;;21.78;46.75;93960.34;5024068;28;20093;-85
2023/06/30 09:24:30;;;;;;;14.90;4.20;;;;;;;21.81;47.15;93963.03;5024027;28;20018;-85
2023/06/30 09:26:56;;;;;;;8.85;3.67;;;;;;;21.72;46.73;93953.72;5022558;28;20033;-85
2023/06/30 09:29:23;;;;;;;12.52;3.92;;;;;;;21.74;47.74;93957.59;5024028;28;20026;-85
2023/06/30 09:31:52;;;;;;;11.98;4.07;;;;;;;21.72;47.73;93957.22;5024109;28;20033;-85
2023/06/30 09:34:21;;;;;;;9.80;4.28;;;;;;;21.80;47.42;93956.06;5023928;28;20056;-86
2023/06/30 09:36:50;;;;;;;8.38;4.57;;;;;;;;;;5023865;28;20064;-86
2023/06/30 09:39:16;;;;;;;8.27;3.95;;;;;;;21.88;47.21;93947.94;5024120;28;20030;-86
2023/06/30 09:41:43;;;;;;;6.50;4.03;;;;;;;22.03;49.60;93946.84;5023962;28;20036;-86
2023/06/30 09:44:10;;;;;;;9.48;4.43;;;;;;;22.18;48.33;93948.41;5023896;28;20045;-86
2023/06/30 09:46:35;;;;;;;10.75;4.47;;;;;;;22.28;47.66;93943.44;5023867;28;20068;-86
2023/06/30 09:49:04;;;;;;;7.18;3.55;;;;;;;22.31;47.54;93939.94;5022753;28;20030;-86
2023/06/30 09:51:31;;;;;;;7.32;4.15;;;;;;;22.34;45.83;93936.47;5023937;28;20084;-85
2023/06/30 09:53:57;;;;;;;8.70;4.00;;;;;;;22.34;46.47;93939.19;5023845;28;20026;-86
2023/06/30 09:56:23;;;;;;;9.20;3.80;;;;;;;22.38;46.54;93937.25;5023949;28;20161;-85
2023/06/30 09:58:55;;;;;;;7.60;3.60;;;;;;;22.51;49.10;93929.50;5023589;28;20030;-86
2023/06/30 10:01:21;;;;;;;5.97;3.83;;;;;;;22.61;45.87;93921.38;5023939;28;20025;-86
2023/06/30 10:03:51;;;;;;;7.95;3.67;;;;;;;22.74;47.03;93938.03;5028006;28;20026;-86
2023/06/30 10:06:18;;;;;;;8.82;4.22;;;;;;;22.87;45.25;93930.25;5027875;28;20022;-86
2023/06/30 10:08:49;;;;;;;10.35;4.35;;;;;;;22.92;45.26;93921.72;5027580;28;20037;-86
2023/06/30 10:11:14;;;;;;;4.55;3.35;;;;;;;22.96;45.76;93925.22;5027534;28;20036;-86
2023/06/30 10:13:42;;;;;;;8.00;3.55;;;;;;;22.90;45.16;93915.91;5027376;28;20104;-86
2023/06/30 10:16:09;;;;;;;5.00;3.22;;;;;;;22.91;44.47;93906.56;5027603;28;20050;-86
2023/06/30 10:18:41;;;;;;;8.55;4.00;;;;;;;22.95;45.73;93912.78;5027282;28;20033;-86
2023/06/30 10:21:07;;;;;;;7.70;3.85;;;;;;;23.09;43.77;93903.88;5027396;28;20129;-86
2023/06/30 10:23:34;;;;;;;8.25;3.63;;;;;;;23.29;44.80;93895.28;5026991;28;20030;-86
2023/06/30 10:26:01;;;;;;;6.57;4.30;;;;;;;23.47;43.98;93900.63;5026656;28;20028;-86
2023/06/30 10:28:27;;;;;;;10.75;4.78;;;;;;;23.60;43.05;93896.31;5027293;28;20053;-86
2023/06/30 10:30:53;;;;;;;9.95;4.60;;;;;;;23.64;42.21;93903.28;5027157;28;20030;-86
2023/06/30 10:33:19;;;;;;;5.72;3.38;;;;;;;23.68;42.54;93888.91;5026767;28;20027;-86
2023/06/30 10:35:44;;;;;;;5.90;4.35;;;;;;;23.80;41.16;93893.94;5027002;28;20097;-86
2023/06/30 10:38:13;;;;;;;7.95;3.58;;;;;;;23.83;41.01;93885.75;5027027;28;20028;-86
2023/06/30 10:40:38;;;;;;;8.63;3.33;;;;;;;23.89;39.93;93875.22;5026840;28;20034;-86
2023/06/30 10:43:05;;;;;;;10.25;3.95;;;;;;;23.90;40.71;93887.66;5027087;28;20334;-86
2023/06/30 10:45:55;;;;;;;6.55;3.80;;;;;;;24.02;41.47;93872.81;5026827;28;20018;-86
2023/06/30 10:48:20;;;;;;;9.35;3.08;;;;;;;24.26;41.92;93875.75;5041939;28;20022;-86
2023/06/30 10:50:46;;;;;;;6.55;3.80;;;;;;;24.48;40.92;93871.69;5042066;28;20101;-86
2023/06/30 10:53:18;;;;;;;9.68;4.07;;;;;;;24.48;39.35;93871.69;5026370;28;20124;-86
2023/06/30 10:55:44;;;;;;;9.27;3.38;;;;;;;24.41;40.40;93858.16;5026872;28;20026;-86
2023/06/30 10:58:09;;;;;;;7.57;3.53;;;;;;;24.43;41.10;93864.75;5026700;28;20026;-85
2023/06/30 11:00:35;;;;;;;10.30;3.28;;;;;;;24.53;40.87;93863.13;5026481;28;20033;-86
2023/06/30 11:03:04;;;;;;;8.80;3.60;;;;;;;24.72;40.70;93863.75;5026577;28;20227;-86
2023/06/30 11:05:31;;;;;;;8.82;3.67;;;;;;;24.92;40.90;93856.56;5026604;28;20247;-86
2023/06/30 11:08:07;;;;;;;7.43;3.30;;;;;;;25.17;41.32;93860.97;5025301;28;20026;-86
2023/06/30 11:10:32;;;;;;;6.25;3.03;;;;;;;25.36;40.22;93854.94;5026452;28;20220;-86
2023/06/30 11:13:11;;;;;;;10.23;3.80;;;;;;;25.51;39.36;93852.06;5026990;28;20026;-86
2023/06/30 11:15:46;;;;;;;10.02;3.40;;;;;;;25.50;37.80;93851.25;5026403;28;20033;-86
2023/06/30 11:18:24;;;;;;;5.55;3.35;;;;;;;25.66;40.20;93853.41;5026129;28;20030;-86
2023/06/30 11:21:04;;;;;;;5.07;3.00;;;;;;;25.85;38.77;93843.00;5041909;28;20080;-87
2023/06/30 11:23:37;;;;;;;8.35;3.60;;;;;;;25.92;38.36;93849.19;5026171;28;20025;-86
2023/06/30 11:26:17;;;;;;;9.85;3.70;;;;;;;25.77;38.28;93840.41;5026174;28;20026;-85